LIBP/PSR METAR and TAF weather

Enter ICAO airport designator
Station Type Date Time Source
LIBP METAR 2018/12/11 16:50 UTC NOAA

LIBP 111650Z 20005KT 180V250 CAVOK 05/03 Q1019


Station Type Date Time Source
LIBP Decoded METAR 2018/12/11 16:50 UTC NOAA

Pescara, Italy (LIBP) 42-26N 014-12E 11M
Dec 11, 2018 - 11:50 AM EST / 2018.12.11 1650 UTC
Wind: from the SSW (200 degrees) at 6 MPH (5 KT) (direction variable):0
Visibility: greater than 7 mile(s):0
Temperature: 41 F (5 C)
Dew Point: 37 F (3 C)
Relative Humidity: 86%
Pressure (altimeter): 30.09 in. Hg (1019 hPa)
ob: LIBP 111650Z 20005KT 180V250 CAVOK 05/03 Q1019
cycle: 17

Station Type Date Time Source
LIBP TAF 2018/12/11 18:21 UTC NOAA

TAF LIBP 111700Z 1118/1218 VRB06KT 9999 SCT030
TEMPO 1118/1121 SHRA


Example: see airport list